sensor_id;sensor_type;location;lat;lon;timestamp;temperature;humidity
10660;DHT22;5378;53.206;13.316;2023-09-12T00:01:13;18.00;99.90
10660;DHT22;5378;53.206;13.316;2023-09-12T00:04:00;18.00;99.90
10660;DHT22;5378;53.206;13.316;2023-09-12T00:06:47;18.00;99.90
10660;DHT22;5378;53.206;13.316;2023-09-12T00:09:34;17.90;99.90
10660;DHT22;5378;53.206;13.316;2023-09-12T00:12:23;18.00;99.90
10660;DHT22;5378;53.206;13.316;2023-09-12T00:15:11;17.90;99.90
10660;DHT22;5378;53.206;13.316;2023-09-12T00:17:59;17.90;99.90
10660;DHT22;5378;53.206;13.316;2023-09-12T00:20:46;17.80;99.90
10660;DHT22;5378;53.206;13.316;2023-09-12T00:23:33;17.90;99.90
10660;DHT22;5378;53.206;13.316;2023-09-12T00:26:20;17.80;99.90
10660;DHT22;5378;53.206;13.316;2023-09-12T00:29:10;17.70;99.90
10660;DHT22;5378;53.206;13.316;2023-09-12T00:31:57;17.80;99.90
10660;DHT22;5378;53.206;13.316;2023-09-12T00:34:44;17.80;99.90
10660;DHT22;5378;53.206;13.316;2023-09-12T00:37:32;17.80;99.90
10660;DHT22;5378;53.206;13.316;2023-09-12T00:40:19;17.80;99.90
10660;DHT22;5378;53.206;13.316;2023-09-12T00:43:06;17.80;99.90
10660;DHT22;5378;53.206;13.316;2023-09-12T00:45:55;17.80;99.90
10660;DHT22;5378;53.206;13.316;2023-09-12T00:48:42;17.80;99.90
10660;DHT22;5378;53.206;13.316;2023-09-12T00:51:31;17.70;99.90
10660;DHT22;5378;53.206;13.316;2023-09-12T00:54:19;17.70;99.90
10660;DHT22;5378;53.206;13.316;2023-09-12T00:57:06;17.70;99.90
10660;DHT22;5378;53.206;13.316;2023-09-12T00:59:54;17.70;99.90
10660;DHT22;5378;53.206;13.316;2023-09-12T01:02:44;17.60;99.90
10660;DHT22;5378;53.206;13.316;2023-09-12T01:05:32;17.60;99.90
10660;DHT22;5378;53.206;13.316;2023-09-12T01:08:20;17.70;99.90
10660;DHT22;5378;53.206;13.316;2023-09-12T01:11:07;17.70;99.90
10660;DHT22;5378;53.206;13.316;2023-09-12T01:13:55;17.60;99.90
10660;DHT22;5378;53.206;13.316;2023-09-12T01:16:42;17.60;99.90
10660;DHT22;5378;53.206;13.316;2023-09-12T01:19:31;17.70;99.90
10660;DHT22;5378;53.206;13.316;2023-09-12T01:22:46;17.60;99.90
10660;DHT22;5378;53.206;13.316;2023-09-12T01:25:45;17.60;99.90
10660;DHT22;5378;53.206;13.316;2023-09-12T01:28:44;17.60;99.90
10660;DHT22;5378;53.206;13.316;2023-09-12T01:31:32;17.60;99.90
10660;DHT22;5378;53.206;13.316;2023-09-12T01:34:20;17.60;99.90
10660;DHT22;5378;53.206;13.316;2023-09-12T01:37:07;17.50;99.90
10660;DHT22;5378;53.206;13.316;2023-09-12T01:39:54;17.50;99.90
10660;DHT22;5378;53.206;13.316;2023-09-12T01:42:43;17.50;99.90
10660;DHT22;5378;53.206;13.316;2023-09-12T01:45:33;17.50;99.90
10660;DHT22;5378;53.206;13.316;2023-09-12T01:48:22;17.50;99.90
10660;DHT22;5378;53.206;13.316;2023-09-12T01:51:10;17.50;99.90
10660;DHT22;5378;53.206;13.316;2023-09-12T01:53:58;17.50;99.90
10660;DHT22;5378;53.206;13.316;2023-09-12T01:56:47;17.50;99.90
10660;DHT22;5378;53.206;13.316;2023-09-12T01:59:35;17.50;99.90
10660;DHT22;5378;53.206;13.316;2023-09-12T02:02:23;17.40;99.90
10660;DHT22;5378;53.206;13.316;2023-09-12T02:05:13;17.40;99.90
10660;DHT22;5378;53.206;13.316;2023-09-12T02:08:03;17.30;99.90
10660;DHT22;5378;53.206;13.316;2023-09-12T02:10:51;17.30;99.90
10660;DHT22;5378;53.206;13.316;2023-09-12T02:13:38;17.20;99.90
10660;DHT22;5378;53.206;13.316;2023-09-12T02:16:26;17.20;99.90
10660;DHT22;5378;53.206;13.316;2023-09-12T02:19:14;17.10;99.90
10660;DHT22;5378;53.206;13.316;2023-09-12T02:22:01;17.10;99.90
10660;DHT22;5378;53.206;13.316;2023-09-12T02:24:49;17.20;99.90
10660;DHT22;5378;53.206;13.316;2023-09-12T02:27:36;17.10;99.90
10660;DHT22;5378;53.206;13.316;2023-09-12T02:30:23;17.10;99.90
10660;DHT22;5378;53.206;13.316;2023-09-12T02:33:10;17.10;99.90
10660;DHT22;5378;53.206;13.316;2023-09-12T02:36:13;17.00;99.90
10660;DHT22;5378;53.206;13.316;2023-09-12T02:39:00;17.00;99.90
10660;DHT22;5378;53.206;13.316;2023-09-12T02:41:49;16.90;99.90
10660;DHT22;5378;53.206;13.316;2023-09-12T02:44:36;16.80;99.90
10660;DHT22;5378;53.206;13.316;2023-09-12T02:47:23;16.90;99.90
10660;DHT22;5378;53.206;13.316;2023-09-12T02:50:10;16.90;99.90
10660;DHT22;5378;53.206;13.316;2023-09-12T02:52:59;17.00;99.90
10660;DHT22;5378;53.206;13.316;2023-09-12T02:55:46;17.00;99.90
10660;DHT22;5378;53.206;13.316;2023-09-12T02:58:33;17.00;99.90
10660;DHT22;5378;53.206;13.316;2023-09-12T03:01:20;17.00;99.90
10660;DHT22;5378;53.206;13.316;2023-09-12T03:04:08;17.00;99.90
10660;DHT22;5378;53.206;13.316;2023-09-12T03:06:55;17.00;99.90
10660;DHT22;5378;53.206;13.316;2023-09-12T03:09:44;17.00;99.90
10660;DHT22;5378;53.206;13.316;2023-09-12T03:12:35;17.00;99.90
10660;DHT22;5378;53.206;13.316;2023-09-12T03:15:23;17.00;99.90
10660;DHT22;5378;53.206;13.316;2023-09-12T03:18:10;17.00;99.90
10660;DHT22;5378;53.206;13.316;2023-09-12T03:20:57;17.10;99.90
10660;DHT22;5378;53.206;13.316;2023-09-12T03:23:45;17.10;99.90
10660;DHT22;5378;53.206;13.316;2023-09-12T03:26:35;17.00;99.90
10660;DHT22;5378;53.206;13.316;2023-09-12T03:29:22;17.00;99.90
10660;DHT22;5378;53.206;13.316;2023-09-12T03:32:10;17.00;99.90
10660;DHT22;5378;53.206;13.316;2023-09-12T03:34:57;17.10;99.90
10660;DHT22;5378;53.206;13.316;2023-09-12T03:37:44;17.10;99.90
10660;DHT22;5378;53.206;13.316;2023-09-12T03:40:31;17.10;99.90
10660;DHT22;5378;53.206;13.316;2023-09-12T03:43:20;17.00;99.90
10660;DHT22;5378;53.206;13.316;2023-09-12T03:46:08;17.00;99.90
10660;DHT22;5378;53.206;13.316;2023-09-12T03:48:55;16.90;99.90
10660;DHT22;5378;53.206;13.316;2023-09-12T03:51:42;16.90;99.90
10660;DHT22;5378;53.206;13.316;2023-09-12T03:54:29;16.80;99.90
10660;DHT22;5378;53.206;13.316;2023-09-12T03:57:17;16.80;99.90
10660;DHT22;5378;53.206;13.316;2023-09-12T04:00:06;16.70;99.90
10660;DHT22;5378;53.206;13.316;2023-09-12T04:03:04;16.70;99.90
10660;DHT22;5378;53.206;13.316;2023-09-12T04:05:51;16.80;99.90
10660;DHT22;5378;53.206;13.316;2023-09-12T04:08:38;16.80;99.90
10660;DHT22;5378;53.206;13.316;2023-09-12T04:11:26;16.70;99.90
10660;DHT22;5378;53.206;13.316;2023-09-12T04:14:20;16.70;99.90
10660;DHT22;5378;53.206;13.316;2023-09-12T04:17:09;16.70;99.90
10660;DHT22;5378;53.206;13.316;2023-09-12T04:19:56;16.70;99.90
10660;DHT22;5378;53.206;13.316;2023-09-12T04:22:43;16.70;99.90
10660;DHT22;5378;53.206;13.316;2023-09-12T04:25:30;16.70;99.90
10660;DHT22;5378;53.206;13.316;2023-09-12T04:28:19;16.70;99.90
10660;DHT22;5378;53.206;13.316;2023-09-12T04:31:06;16.70;99.90
10660;DHT22;5378;53.206;13.316;2023-09-12T04:33:54;16.70;99.90
10660;DHT22;5378;53.206;13.316;2023-09-12T04:36:42;16.80;99.90
10660;DHT22;5378;53.206;13.316;2023-09-12T04:39:30;16.80;99.90
10660;DHT22;5378;53.206;13.316;2023-09-12T04:42:17;16.90;99.90
10660;DHT22;5378;53.206;13.316;2023-09-12T04:45:05;16.90;99.90
10660;DHT22;5378;53.206;13.316;2023-09-12T04:47:53;16.90;99.90
10660;DHT22;5378;53.206;13.316;2023-09-12T04:50:42;17.00;99.90
10660;DHT22;5378;53.206;13.316;2023-09-12T04:53:29;17.00;99.90
10660;DHT22;5378;53.206;13.316;2023-09-12T04:56:21;17.10;99.90
10660;DHT22;5378;53.206;13.316;2023-09-12T04:59:10;17.20;99.90
10660;DHT22;5378;53.206;13.316;2023-09-12T05:01:57;17.30;99.90
10660;DHT22;5378;53.206;13.316;2023-09-12T05:04:44;17.30;99.90
10660;DHT22;5378;53.206;13.316;2023-09-12T05:07:34;17.40;99.90
10660;DHT22;5378;53.206;13.316;2023-09-12T05:10:21;17.50;99.90
10660;DHT22;5378;53.206;13.316;2023-09-12T05:13:08;17.60;99.90
10660;DHT22;5378;53.206;13.316;2023-09-12T05:15:56;17.60;99.90
10660;DHT22;5378;53.206;13.316;2023-09-12T05:18:44;17.70;99.90
10660;DHT22;5378;53.206;13.316;2023-09-12T05:21:31;17.80;99.90
10660;DHT22;5378;53.206;13.316;2023-09-12T05:24:20;17.90;99.90
10660;DHT22;5378;53.206;13.316;2023-09-12T05:27:07;17.90;99.90
10660;DHT22;5378;53.206;13.316;2023-09-12T05:29:54;18.00;99.90
10660;DHT22;5378;53.206;13.316;2023-09-12T05:32:42;18.00;99.90
10660;DHT22;5378;53.206;13.316;2023-09-12T05:35:29;18.10;99.90
10660;DHT22;5378;53.206;13.316;2023-09-12T05:38:16;18.20;99.90
10660;DHT22;5378;53.206;13.316;2023-09-12T05:41:04;18.20;99.90
10660;DHT22;5378;53.206;13.316;2023-09-12T05:43:51;18.20;99.90
10660;DHT22;5378;53.206;13.316;2023-09-12T05:46:38;18.20;99.90
10660;DHT22;5378;53.206;13.316;2023-09-12T05:49:25;18.30;99.90
10660;DHT22;5378;53.206;13.316;2023-09-12T05:52:14;18.30;99.90
10660;DHT22;5378;53.206;13.316;2023-09-12T05:55:01;18.50;99.90
10660;DHT22;5378;53.206;13.316;2023-09-12T05:57:51;18.70;99.90
10660;DHT22;5378;53.206;13.316;2023-09-12T06:00:40;18.90;99.90
10660;DHT22;5378;53.206;13.316;2023-09-12T06:03:27;19.10;99.90
10660;DHT22;5378;53.206;13.316;2023-09-12T06:06:15;19.20;99.90
10660;DHT22;5378;53.206;13.316;2023-09-12T06:09:02;19.30;99.90
10660;DHT22;5378;53.206;13.316;2023-09-12T06:11:50;19.50;99.90
10660;DHT22;5378;53.206;13.316;2023-09-12T06:14:38;19.60;99.90
10660;DHT22;5378;53.206;13.316;2023-09-12T06:17:25;19.70;99.90
10660;DHT22;5378;53.206;13.316;2023-09-12T06:20:13;20.00;99.90
10660;DHT22;5378;53.206;13.316;2023-09-12T06:23:00;20.70;99.90
10660;DHT22;5378;53.206;13.316;2023-09-12T06:25:47;21.80;99.90
10660;DHT22;5378;53.206;13.316;2023-09-12T06:28:34;23.10;99.90
10660;DHT22;5378;53.206;13.316;2023-09-12T06:31:22;24.40;99.90
10660;DHT22;5378;53.206;13.316;2023-09-12T06:34:10;25.60;99.90
10660;DHT22;5378;53.206;13.316;2023-09-12T06:36:57;26.70;99.90
10660;DHT22;5378;53.206;13.316;2023-09-12T06:39:44;27.40;99.90
10660;DHT22;5378;53.206;13.316;2023-09-12T06:42:31;27.70;99.90
10660;DHT22;5378;53.206;13.316;2023-09-12T06:45:18;27.70;99.90
10660;DHT22;5378;53.206;13.316;2023-09-12T06:48:07;27.60;99.90
10660;DHT22;5378;53.206;13.316;2023-09-12T06:50:54;27.80;99.90
10660;DHT22;5378;53.206;13.316;2023-09-12T06:53:41;28.20;99.90
10660;DHT22;5378;53.206;13.316;2023-09-12T06:56:28;28.60;99.90
10660;DHT22;5378;53.206;13.316;2023-09-12T06:59:15;29.20;99.90
10660;DHT22;5378;53.206;13.316;2023-09-12T07:02:03;29.70;99.90
10660;DHT22;5378;53.206;13.316;2023-09-12T07:04:51;29.80;99.90
10660;DHT22;5378;53.206;13.316;2023-09-12T07:07:38;29.60;99.90
10660;DHT22;5378;53.206;13.316;2023-09-12T07:10:26;29.30;99.90
10660;DHT22;5378;53.206;13.316;2023-09-12T07:13:13;28.70;99.90
10660;DHT22;5378;53.206;13.316;2023-09-12T07:16:00;28.20;99.90
10660;DHT22;5378;53.206;13.316;2023-09-12T07:18:50;28.10;99.90
10660;DHT22;5378;53.206;13.316;2023-09-12T07:21:38;28.30;99.90
10660;DHT22;5378;53.206;13.316;2023-09-12T07:24:26;28.90;99.90
10660;DHT22;5378;53.206;13.316;2023-09-12T07:27:13;29.30;99.90
10660;DHT22;5378;53.206;13.316;2023-09-12T07:30:00;30.10;99.90
10660;DHT22;5378;53.206;13.316;2023-09-12T07:32:48;30.80;99.90
10660;DHT22;5378;53.206;13.316;2023-09-12T07:35:37;31.50;99.90
10660;DHT22;5378;53.206;13.316;2023-09-12T07:38:27;32.10;99.90
10660;DHT22;5378;53.206;13.316;2023-09-12T07:41:15;32.50;99.90
10660;DHT22;5378;53.206;13.316;2023-09-12T07:44:02;32.80;99.90
10660;DHT22;5378;53.206;13.316;2023-09-12T07:46:50;33.10;99.90
10660;DHT22;5378;53.206;13.316;2023-09-12T07:49:38;33.20;99.90
10660;DHT22;5378;53.206;13.316;2023-09-12T07:52:25;33.50;99.90
10660;DHT22;5378;53.206;13.316;2023-09-12T07:55:13;33.70;99.90
10660;DHT22;5378;53.206;13.316;2023-09-12T07:58:00;33.80;99.90
10660;DHT22;5378;53.206;13.316;2023-09-12T08:00:47;34.00;99.90
10660;DHT22;5378;53.206;13.316;2023-09-12T08:03:35;34.00;99.90
10660;DHT22;5378;53.206;13.316;2023-09-12T08:06:22;34.20;99.90
10660;DHT22;5378;53.206;13.316;2023-09-12T08:09:10;34.40;99.90
10660;DHT22;5378;53.206;13.316;2023-09-12T08:11:58;34.50;99.90
10660;DHT22;5378;53.206;13.316;2023-09-12T08:14:45;34.80;99.90
10660;DHT22;5378;53.206;13.316;2023-09-12T08:17:32;35.20;99.90
10660;DHT22;5378;53.206;13.316;2023-09-12T08:20:20;35.20;99.90
10660;DHT22;5378;53.206;13.316;2023-09-12T08:23:07;34.90;99.90
10660;DHT22;5378;53.206;13.316;2023-09-12T08:25:54;34.40;99.90
10660;DHT22;5378;53.206;13.316;2023-09-12T08:28:42;34.10;99.90
10660;DHT22;5378;53.206;13.316;2023-09-12T08:31:29;33.50;98.80
10660;DHT22;5378;53.206;13.316;2023-09-12T08:34:17;32.80;99.90
10660;DHT22;5378;53.206;13.316;2023-09-12T08:37:04;32.90;99.90
10660;DHT22;5378;53.206;13.316;2023-09-12T08:39:51;33.10;99.90
10660;DHT22;5378;53.206;13.316;2023-09-12T08:42:44;33.50;99.90
10660;DHT22;5378;53.206;13.316;2023-09-12T08:45:35;33.80;99.90
10660;DHT22;5378;53.206;13.316;2023-09-12T08:48:23;34.00;99.90
10660;DHT22;5378;53.206;13.316;2023-09-12T08:51:11;34.00;99.90
10660;DHT22;5378;53.206;13.316;2023-09-12T08:53:59;34.00;99.90
10660;DHT22;5378;53.206;13.316;2023-09-12T08:56:47;33.80;99.90
10660;DHT22;5378;53.206;13.316;2023-09-12T08:59:34;33.50;99.90
10660;DHT22;5378;53.206;13.316;2023-09-12T09:02:23;33.50;99.90
10660;DHT22;5378;53.206;13.316;2023-09-12T09:05:11;33.30;99.40
10660;DHT22;5378;53.206;13.316;2023-09-12T09:07:59;31.90;99.90
10660;DHT22;5378;53.206;13.316;2023-09-12T09:10:55;31.10;99.90
10660;DHT22;5378;53.206;13.316;2023-09-12T09:13:43;30.60;99.90
10660;DHT22;5378;53.206;13.316;2023-09-12T09:16:30;30.00;99.90
10660;DHT22;5378;53.206;13.316;2023-09-12T09:19:19;29.40;99.90
10660;DHT22;5378;53.206;13.316;2023-09-12T09:22:06;29.50;99.90
10660;DHT22;5378;53.206;13.316;2023-09-12T09:25:09;29.10;99.90
10660;DHT22;5378;53.206;13.316;2023-09-12T09:27:57;28.30;99.90
10660;DHT22;5378;53.206;13.316;2023-09-12T09:30:46;27.80;99.90
10660;DHT22;5378;53.206;13.316;2023-09-12T09:33:35;27.50;99.90
10660;DHT22;5378;53.206;13.316;2023-09-12T09:36:24;27.50;99.90
10660;DHT22;5378;53.206;13.316;2023-09-12T09:39:12;27.50;99.90
10660;DHT22;5378;53.206;13.316;2023-09-12T09:42:00;27.70;99.90
10660;DHT22;5378;53.206;13.316;2023-09-12T09:44:47;27.70;99.90
10660;DHT22;5378;53.206;13.316;2023-09-12T09:47:35;27.70;99.90
10660;DHT22;5378;53.206;13.316;2023-09-12T09:50:23;27.90;99.90
10660;DHT22;5378;53.206;13.316;2023-09-12T09:53:11;27.80;99.90
10660;DHT22;5378;53.206;13.316;2023-09-12T09:56:11;27.90;99.90
10660;DHT22;5378;53.206;13.316;2023-09-12T09:58:58;27.90;99.90
10660;DHT22;5378;53.206;13.316;2023-09-12T10:01:45;27.80;99.90
10660;DHT22;5378;53.206;13.316;2023-09-12T10:04:34;27.70;99.90
10660;DHT22;5378;53.206;13.316;2023-09-12T10:07:25;27.70;99.90
10660;DHT22;5378;53.206;13.316;2023-09-12T10:10:13;27.80;99.90
10660;DHT22;5378;53.206;13.316;2023-09-12T10:13:03;27.90;99.90
10660;DHT22;5378;53.206;13.316;2023-09-12T10:15:51;27.70;99.90
10660;DHT22;5378;53.206;13.316;2023-09-12T10:18:46;27.60;99.90
10660;DHT22;5378;53.206;13.316;2023-09-12T10:21:37;27.30;99.90
10660;DHT22;5378;53.206;13.316;2023-09-12T10:24:27;27.30;99.90
10660;DHT22;5378;53.206;13.316;2023-09-12T10:27:19;27.30;99.90
10660;DHT22;5378;53.206;13.316;2023-09-12T10:30:08;27.40;99.90
10660;DHT22;5378;53.206;13.316;2023-09-12T10:32:57;27.40;99.90
10660;DHT22;5378;53.206;13.316;2023-09-12T10:35:45;27.40;99.90
10660;DHT22;5378;53.206;13.316;2023-09-12T10:38:38;27.20;99.90
10660;DHT22;5378;53.206;13.316;2023-09-12T10:41:27;27.00;99.90
10660;DHT22;5378;53.206;13.316;2023-09-12T10:44:17;26.60;99.90
10660;DHT22;5378;53.206;13.316;2023-09-12T10:47:05;26.40;99.90
10660;DHT22;5378;53.206;13.316;2023-09-12T10:49:52;26.30;99.90
10660;DHT22;5378;53.206;13.316;2023-09-12T10:52:39;26.30;99.90
10660;DHT22;5378;53.206;13.316;2023-09-12T10:55:27;26.20;99.90
10660;DHT22;5378;53.206;13.316;2023-09-12T10:58:14;26.20;99.90
10660;DHT22;5378;53.206;13.316;2023-09-12T11:01:24;26.00;99.90
10660;DHT22;5378;53.206;13.316;2023-09-12T11:04:31;25.90;99.90
10660;DHT22;5378;53.206;13.316;2023-09-12T11:07:44;26.00;99.90
10660;DHT22;5378;53.206;13.316;2023-09-12T11:10:32;26.20;99.90
10660;DHT22;5378;53.206;13.316;2023-09-12T11:13:19;26.30;99.90
10660;DHT22;5378;53.206;13.316;2023-09-12T11:16:10;26.30;99.90
10660;DHT22;5378;53.206;13.316;2023-09-12T11:19:16;26.10;99.90
10660;DHT22;5378;53.206;13.316;2023-09-12T11:22:21;26.20;99.90
10660;DHT22;5378;53.206;13.316;2023-09-12T11:25:19;26.20;99.90
10660;DHT22;5378;53.206;13.316;2023-09-12T11:28:08;26.20;99.90
10660;DHT22;5378;53.206;13.316;2023-09-12T11:30:56;26.30;99.90
10660;DHT22;5378;53.206;13.316;2023-09-12T11:33:44;26.50;99.90
10660;DHT22;5378;53.206;13.316;2023-09-12T11:36:38;26.50;99.90
10660;DHT22;5378;53.206;13.316;2023-09-12T11:39:28;26.50;99.90
10660;DHT22;5378;53.206;13.316;2023-09-12T11:42:16;26.50;99.90
10660;DHT22;5378;53.206;13.316;2023-09-12T11:45:08;26.70;99.90
10660;DHT22;5378;53.206;13.316;2023-09-12T11:47:55;26.90;99.90
10660;DHT22;5378;53.206;13.316;2023-09-12T11:50:42;27.10;99.90
10660;DHT22;5378;53.206;13.316;2023-09-12T11:53:37;27.30;99.90
10660;DHT22;5378;53.206;13.316;2023-09-12T11:56:24;27.40;99.90
10660;DHT22;5378;53.206;13.316;2023-09-12T11:59:11;27.50;99.90
10660;DHT22;5378;53.206;13.316;2023-09-12T12:01:59;27.50;99.90
10660;DHT22;5378;53.206;13.316;2023-09-12T12:04:46;27.70;99.90
10660;DHT22;5378;53.206;13.316;2023-09-12T12:07:34;27.80;99.90
10660;DHT22;5378;53.206;13.316;2023-09-12T12:10:23;27.90;99.90
10660;DHT22;5378;53.206;13.316;2023-09-12T12:13:12;28.10;99.90
10660;DHT22;5378;53.206;13.316;2023-09-12T12:16:14;28.20;99.90
10660;DHT22;5378;53.206;13.316;2023-09-12T12:19:02;28.10;99.90
10660;DHT22;5378;53.206;13.316;2023-09-12T12:21:49;28.20;99.90
10660;DHT22;5378;53.206;13.316;2023-09-12T12:24:37;28.20;99.90
10660;DHT22;5378;53.206;13.316;2023-09-12T12:27:28;28.20;99.90
10660;DHT22;5378;53.206;13.316;2023-09-12T12:30:15;28.20;99.90
10660;DHT22;5378;53.206;13.316;2023-09-12T12:33:06;28.10;99.90
10660;DHT22;5378;53.206;13.316;2023-09-12T12:35:59;28.10;99.90
10660;DHT22;5378;53.206;13.316;2023-09-12T12:38:47;28.10;99.90
10660;DHT22;5378;53.206;13.316;2023-09-12T12:41:37;28.10;99.90
10660;DHT22;5378;53.206;13.316;2023-09-12T12:44:36;28.00;99.90
10660;DHT22;5378;53.206;13.316;2023-09-12T12:47:26;27.80;99.90
10660;DHT22;5378;53.206;13.316;2023-09-12T12:50:15;27.70;99.90
10660;DHT22;5378;53.206;13.316;2023-09-12T12:53:03;27.70;99.90
10660;DHT22;5378;53.206;13.316;2023-09-12T12:55:50;27.70;99.90
10660;DHT22;5378;53.206;13.316;2023-09-12T12:58:37;27.70;99.90
10660;DHT22;5378;53.206;13.316;2023-09-12T13:01:26;27.60;99.90
10660;DHT22;5378;53.206;13.316;2023-09-12T13:04:13;27.50;99.90
10660;DHT22;5378;53.206;13.316;2023-09-12T13:07:00;27.40;99.90
10660;DHT22;5378;53.206;13.316;2023-09-12T13:09:47;27.30;99.90
10660;DHT22;5378;53.206;13.316;2023-09-12T13:12:34;27.20;99.90
10660;DHT22;5378;53.206;13.316;2023-09-12T13:15:23;26.90;99.90
10660;DHT22;5378;53.206;13.316;2023-09-12T13:18:11;26.70;99.90
10660;DHT22;5378;53.206;13.316;2023-09-12T13:20:58;26.50;99.90
10660;DHT22;5378;53.206;13.316;2023-09-12T13:23:45;26.60;99.90
10660;DHT22;5378;53.206;13.316;2023-09-12T13:26:33;26.70;99.90
10660;DHT22;5378;53.206;13.316;2023-09-12T13:29:20;26.70;99.90
10660;DHT22;5378;53.206;13.316;2023-09-12T13:32:07;26.70;99.90
10660;DHT22;5378;53.206;13.316;2023-09-12T13:34:57;26.50;99.90
10660;DHT22;5378;53.206;13.316;2023-09-12T13:37:44;26.30;99.90
10660;DHT22;5378;53.206;13.316;2023-09-12T13:40:31;26.30;99.90
10660;DHT22;5378;53.206;13.316;2023-09-12T13:43:18;26.20;99.90
10660;DHT22;5378;53.206;13.316;2023-09-12T13:46:06;26.20;99.90
10660;DHT22;5378;53.206;13.316;2023-09-12T13:48:56;26.20;99.90
10660;DHT22;5378;53.206;13.316;2023-09-12T13:51:47;26.20;99.90
10660;DHT22;5378;53.206;13.316;2023-09-12T13:54:34;26.10;99.90
10660;DHT22;5378;53.206;13.316;2023-09-12T13:57:21;26.10;99.90
10660;DHT22;5378;53.206;13.316;2023-09-12T14:00:09;26.10;99.90
10660;DHT22;5378;53.206;13.316;2023-09-12T14:02:56;26.10;99.90
10660;DHT22;5378;53.206;13.316;2023-09-12T14:05:43;26.10;99.90
10660;DHT22;5378;53.206;13.316;2023-09-12T14:08:32;26.10;99.90
10660;DHT22;5378;53.206;13.316;2023-09-12T14:11:19;26.20;99.90
10660;DHT22;5378;53.206;13.316;2023-09-12T14:14:12;26.20;99.90
10660;DHT22;5378;53.206;13.316;2023-09-12T14:17:02;26.10;99.90
10660;DHT22;5378;53.206;13.316;2023-09-12T14:19:49;26.10;99.90
10660;DHT22;5378;53.206;13.316;2023-09-12T14:22:36;26.00;99.90
10660;DHT22;5378;53.206;13.316;2023-09-12T14:25:25;25.70;99.90
10660;DHT22;5378;53.206;13.316;2023-09-12T14:28:12;25.70;99.90
10660;DHT22;5378;53.206;13.316;2023-09-12T14:31:00;25.60;99.90
10660;DHT22;5378;53.206;13.316;2023-09-12T14:33:49;25.50;99.90
10660;DHT22;5378;53.206;13.316;2023-09-12T14:36:38;25.40;99.90
10660;DHT22;5378;53.206;13.316;2023-09-12T14:39:25;25.30;99.90
10660;DHT22;5378;53.206;13.316;2023-09-12T14:42:14;25.40;99.90
10660;DHT22;5378;53.206;13.316;2023-09-12T14:45:00;25.60;99.90
10660;DHT22;5378;53.206;13.316;2023-09-12T14:47:48;25.70;99.90
10660;DHT22;5378;53.206;13.316;2023-09-12T14:50:35;25.70;99.90
10660;DHT22;5378;53.206;13.316;2023-09-12T14:53:26;25.80;99.90
10660;DHT22;5378;53.206;13.316;2023-09-12T14:56:13;25.70;99.90
10660;DHT22;5378;53.206;13.316;2023-09-12T14:59:03;25.70;99.90
10660;DHT22;5378;53.206;13.316;2023-09-12T15:01:50;25.70;99.90
10660;DHT22;5378;53.206;13.316;2023-09-12T15:04:37;25.70;99.90
10660;DHT22;5378;53.206;13.316;2023-09-12T15:07:24;25.70;99.90
10660;DHT22;5378;53.206;13.316;2023-09-12T15:10:11;25.50;99.90
10660;DHT22;5378;53.206;13.316;2023-09-12T15:12:58;25.50;99.90
10660;DHT22;5378;53.206;13.316;2023-09-12T15:15:47;25.40;99.90
10660;DHT22;5378;53.206;13.316;2023-09-12T15:18:34;25.30;99.90
10660;DHT22;5378;53.206;13.316;2023-09-12T15:21:21;25.20;99.90
10660;DHT22;5378;53.206;13.316;2023-09-12T15:24:09;25.20;99.90
10660;DHT22;5378;53.206;13.316;2023-09-12T15:26:56;25.20;99.90
10660;DHT22;5378;53.206;13.316;2023-09-12T15:29:43;25.10;99.90
10660;DHT22;5378;53.206;13.316;2023-09-12T15:32:31;25.00;99.90
10660;DHT22;5378;53.206;13.316;2023-09-12T15:35:18;25.00;99.90
10660;DHT22;5378;53.206;13.316;2023-09-12T15:38:05;24.90;99.90
10660;DHT22;5378;53.206;13.316;2023-09-12T15:40:53;24.90;99.90
10660;DHT22;5378;53.206;13.316;2023-09-12T15:43:41;24.80;99.90
10660;DHT22;5378;53.206;13.316;2023-09-12T15:46:28;24.70;99.90
10660;DHT22;5378;53.206;13.316;2023-09-12T15:49:20;24.70;99.90
10660;DHT22;5378;53.206;13.316;2023-09-12T15:52:07;24.70;99.90
10660;DHT22;5378;53.206;13.316;2023-09-12T15:54:54;24.60;99.90
10660;DHT22;5378;53.206;13.316;2023-09-12T15:57:41;24.60;99.90
10660;DHT22;5378;53.206;13.316;2023-09-12T16:00:28;24.60;99.90
10660;DHT22;5378;53.206;13.316;2023-09-12T16:03:15;24.40;99.90
10660;DHT22;5378;53.206;13.316;2023-09-12T16:06:04;24.30;99.90
10660;DHT22;5378;53.206;13.316;2023-09-12T16:08:51;24.30;99.90
10660;DHT22;5378;53.206;13.316;2023-09-12T16:11:38;24.20;99.90
10660;DHT22;5378;53.206;13.316;2023-09-12T16:14:25;24.10;99.90
10660;DHT22;5378;53.206;13.316;2023-09-12T16:17:12;24.10;99.90
10660;DHT22;5378;53.206;13.316;2023-09-12T16:19:59;24.00;99.90
10660;DHT22;5378;53.206;13.316;2023-09-12T16:22:47;24.10;99.90
10660;DHT22;5378;53.206;13.316;2023-09-12T16:25:34;24.10;99.90
10660;DHT22;5378;53.206;13.316;2023-09-12T16:28:21;24.10;99.90
10660;DHT22;5378;53.206;13.316;2023-09-12T16:31:09;24.10;99.90
10660;DHT22;5378;53.206;13.316;2023-09-12T16:33:56;24.10;99.90
10660;DHT22;5378;53.206;13.316;2023-09-12T16:36:43;24.00;99.90
10660;DHT22;5378;53.206;13.316;2023-09-12T16:39:32;23.90;99.90
10660;DHT22;5378;53.206;13.316;2023-09-12T16:42:20;23.90;99.90
10660;DHT22;5378;53.206;13.316;2023-09-12T16:45:08;23.90;99.90
10660;DHT22;5378;53.206;13.316;2023-09-12T16:47:56;23.80;99.90
10660;DHT22;5378;53.206;13.316;2023-09-12T16:50:44;23.70;99.90
10660;DHT22;5378;53.206;13.316;2023-09-12T16:53:32;23.60;99.90
10660;DHT22;5378;53.206;13.316;2023-09-12T16:56:20;23.50;99.90
10660;DHT22;5378;53.206;13.316;2023-09-12T16:59:07;23.50;99.90
10660;DHT22;5378;53.206;13.316;2023-09-12T17:01:55;23.50;99.90
10660;DHT22;5378;53.206;13.316;2023-09-12T17:04:42;23.40;99.90
10660;DHT22;5378;53.206;13.316;2023-09-12T17:07:30;23.40;99.90
10660;DHT22;5378;53.206;13.316;2023-09-12T17:10:17;23.40;99.90
10660;DHT22;5378;53.206;13.316;2023-09-12T17:13:07;23.30;99.90
10660;DHT22;5378;53.206;13.316;2023-09-12T17:15:54;23.20;99.90
10660;DHT22;5378;53.206;13.316;2023-09-12T17:18:42;23.20;99.90
10660;DHT22;5378;53.206;13.316;2023-09-12T17:21:29;23.20;99.90
10660;DHT22;5378;53.206;13.316;2023-09-12T17:24:16;23.20;99.90
10660;DHT22;5378;53.206;13.316;2023-09-12T17:27:03;23.20;99.90
10660;DHT22;5378;53.206;13.316;2023-09-12T17:29:52;23.20;99.90
10660;DHT22;5378;53.206;13.316;2023-09-12T17:32:39;23.20;99.90
10660;DHT22;5378;53.206;13.316;2023-09-12T17:35:26;23.10;99.90
10660;DHT22;5378;53.206;13.316;2023-09-12T17:38:13;23.10;99.90
10660;DHT22;5378;53.206;13.316;2023-09-12T17:41:01;23.10;99.90
10660;DHT22;5378;53.206;13.316;2023-09-12T17:43:48;23.10;99.90